• Join FlightAware (Why Join?)
  • Login
  • US Flag 
03:36AM EDT


 

Airport Tracker/Info


-or-


 

Live Flight TrackerFlight Track Log ✈ UAL4086 ✈ 22-Apr-2013 ✈ KIAH - KSAT

Flight Track Log - Related Links

Times and Time Zones

All times are in EDT time to prevent confusion due to time zone crossing. See the UAL4086 flight status page for this flight to view local times or setup timezone preferences in your user account.

Time Position Orientation Groundspeed Altitude Reporting Facility
EDT Latitude Longitude Course Direction KTS MPH feet Rate Location/Type
10:11AM 29.9594 -95.3414 270° West 152 175 800  Level Houston Center
10:11AM 29.9425 -95.3411 179° South 173 199 1,600 1,620 Climbing Houston Center
10:12AM 29.8986 -95.3872 222° Southwest 243 280 3,200 1,800 Climbing Houston Center
10:13AM 29.8725 -95.4208 228° Southwest 237 273 4,500 2,160 Climbing Houston Center
10:13AM 29.8517 -95.4483 229° Southwest 270 311 5,400 1,980 Climbing Houston Center
10:14AM 29.8418 -95.7579 249° West  Level FlightAware Approximate
10:14AM 29.8444 -95.4961 260° West 257 296 6,600  Level Houston Center
10:14AM 29.8389 -95.5414 262° West 276 318 8,100 2,460 Climbing Houston Center
10:15AM 29.8044 -95.8631 247° West  Level FlightAware Approximate
10:15AM 29.8339 -95.5825 262° West 271 312 9,200  Level Houston Center
10:16AM 29.7667 -95.9680 270° West  Level FlightAware Approximate
10:16AM 29.8200 -95.6694 260° West 275 316 11,300  Level Houston Center
10:17AM 29.8175 -95.7647 268° West 297 342 12,600 1,200 Climbing Houston Center
10:18AM 29.8233 -95.8856 273° West 321 369 13,900 1,200 Climbing Houston Center
10:19AM 29.8281 -95.9925 273° West 334 384 15,200 1,260 Climbing Houston Center
10:20AM 29.8325 -96.0981 273° West 336 387 16,500 1,200 Climbing Houston Center
10:21AM 29.8375 -96.2050 273° West 335 386 17,800 720 Climbing Houston Center
10:22AM 29.8419 -96.3153 273° West 343 395 18,000 60 Climbing Houston Center
10:23AM 29.8483 -96.4586 273° West 371 427 18,000  Level Houston Center
10:24AM 29.8536 -96.5806 273° West 381 438 18,000  Level Houston Center
10:25AM 29.8578 -96.7031 272° West 385 443 18,000  Level Houston Center
10:26AM 29.8628 -96.8231 273° West 380 437 18,000  Level Houston Center
10:27AM 29.8681 -96.9444 273° West 382 440 18,000  Level Houston Center
10:28AM 29.8725 -97.0900 272° West 383 441 18,000  Level Houston Center
10:29AM 29.8772 -97.2108 273° West 381 438 18,000 -300 Level Houston Center
10:30AM 29.8814 -97.3308 272° West 375 432 17,400 -780 Descending Houston Center
10:31AM 29.8853 -97.4494 272° West 372 428 16,400 -1,020 Descending Houston Center
10:32AM 29.8889 -97.5792 272° West 365 420 15,300 -1,080 Descending Houston Center
10:33AM 29.8903 -97.6239 272° West 362 417 14,900 -1,080 Descending Houston Center
10:33AM 29.8928 -97.7036 272° West 362 417 14,200 -1,140 Descending Houston Center
10:34AM 29.8942 -97.7489 272° West 363 418 13,800 -1,020 Descending Houston Center
10:34AM 29.8958 -97.8206 272° West 366 421 13,200 -720 Descending Houston Center
10:35AM 29.8906 -97.8650 262° West 368 423 13,100 -720 Descending Houston Center
10:35AM 29.8639 -97.9397 248° West 369 425 12,500 -900 Descending Houston Center
10:36AM 29.8506 -97.9714 244° Southwest 362 417 12,200 -1,080 Descending Houston Center
10:36AM 29.8236 -98.0361 244° Southwest 337 388 11,400 -1,200 Descending Houston Center
10:37AM 29.8128 -98.0606 243° Southwest 304 350 11,000 -1,500 Descending Houston Center
10:37AM 29.7864 -98.1244 245° Southwest 290 334 9,900 -1,380 Descending Houston Center
10:38AM 29.7786 -98.1442 246° West 277 319 9,600 -1,500 Descending Houston Center
10:38AM 29.7525 -98.2050 244° Southwest 281 323 8,400 -1,500 Descending Houston Center
10:39AM 29.7439 -98.2231 241° Southwest 275 316 8,100 -1,560 Descending Houston Center
10:40AM 29.7169 -98.2881 244° Southwest 271 312 6,800 -1,560 Descending Houston Center
10:40AM 29.7081 -98.3117 247° West 267 307 6,400 -780 Descending Houston Center
10:41AM 29.6856 -98.3614 242° Southwest 259 298 6,000 -420 Descending Houston Center
10:41AM 29.6769 -98.3828 245° Southwest 245 282 6,000  Level Houston Center
10:42AM 29.6550 -98.4342 244° Southwest 240 276 6,000  Level Houston Center
10:42AM 29.6517 -98.4508 257° West 236 272 6,000 -780 Level Houston Center
10:43AM 29.6739 -98.5008 297° West 234 269 5,200 -1,140 Descending Houston Center
10:43AM 29.6856 -98.5214 303° West 237 273 4,900 -900 Descending Houston Center
10:44AM 29.7117 -98.5586 309° West 228 262 4,300 -840 Descending Houston Center
10:44AM 29.7219 -98.5769 303° West 215 247 4,100 -300 Descending Houston Center
10:45AM 29.7425 -98.6119 304° West 191 220 4,000 -600 Descending Houston Center
10:46AM 29.7086 -98.6489 223° Southwest 159 183 3,100 -540 Descending Houston Center
10:47AM 29.6678 -98.6333 162° South 160 184 3,000 -60 Descending Houston Center
10:48AM 29.6294 -98.5969 140° Southeast 166 191 3,000  Level Houston Center
10:48AM 29.6222 -98.5889 136° Southeast 170 196 3,000  Level Houston Center